createdAt,value
2019-01-26T00:00:21.118Z,115.80
2019-01-26T00:02:52.318Z,121.03
2019-01-26T00:05:22.650Z,120.40
2019-01-26T00:07:52.928Z,122.43
2019-01-26T00:10:23.157Z,134.17
2019-01-26T00:12:53.393Z,127.47
2019-01-26T00:15:23.635Z,132.60
2019-01-26T00:17:53.940Z,131.70
2019-01-26T00:20:24.223Z,128.47
2019-01-26T00:22:54.643Z,139.37
2019-01-26T00:25:24.829Z,129.40
2019-01-26T00:27:55.229Z,130.57
2019-01-26T00:30:25.490Z,123.43
2019-01-26T00:32:55.824Z,147.53
2019-01-26T00:35:26.024Z,134.37
2019-01-26T00:37:56.680Z,131.57
2019-01-26T00:40:27.037Z,131.67
2019-01-26T00:42:57.469Z,124.43
2019-01-26T00:45:27.802Z,128.60
2019-01-26T00:47:58.316Z,130.00
2019-01-26T00:50:28.603Z,140.67
2019-01-26T00:52:58.989Z,141.90
2019-01-26T00:55:29.280Z,135.40
2019-01-26T00:57:59.596Z,133.53
2019-01-26T01:00:29.855Z,142.17
2019-01-26T01:03:00.159Z,148.30
2019-01-26T01:05:30.509Z,141.23
2019-01-26T01:08:00.761Z,139.07
2019-01-26T01:10:30.997Z,135.77
2019-01-26T01:13:01.369Z,140.00
2019-01-26T01:15:31.801Z,138.80
2019-01-26T01:18:02.109Z,137.50
2019-01-26T01:20:32.527Z,143.50
2019-01-26T01:23:02.968Z,148.20
2019-01-26T01:25:33.278Z,147.87
2019-01-26T01:28:03.510Z,146.60
2019-01-26T01:30:33.768Z,142.57
2019-01-26T01:33:04.156Z,144.77
2019-01-26T01:35:34.565Z,143.97
2019-01-26T01:38:04.910Z,134.40
2019-01-26T01:40:35.154Z,149.10
2019-01-26T01:43:05.660Z,143.37
2019-01-26T01:45:35.973Z,147.63
2019-01-26T01:48:06.223Z,155.80
2019-01-26T01:50:36.576Z,146.57
2019-01-26T01:53:06.841Z,134.00
2019-01-26T01:55:37.176Z,149.43
2019-01-26T01:58:07.419Z,143.53
2019-01-26T02:00:37.895Z,144.60
2019-01-26T02:03:08.104Z,143.03
2019-01-26T02:05:38.409Z,150.97
2019-01-26T02:08:08.726Z,149.90
2019-01-26T02:10:39.078Z,148.60
2019-01-26T02:13:09.451Z,137.37
2019-01-26T02:15:39.771Z,147.13
2019-01-26T02:18:10.128Z,135.17
2019-01-26T02:20:40.410Z,150.73
2019-01-26T02:23:10.939Z,144.67
2019-01-26T02:25:41.268Z,143.13
2019-01-26T02:28:11.638Z,147.10
2019-01-26T02:30:41.841Z,146.10
2019-01-26T02:33:12.155Z,141.77
2019-01-26T02:35:42.514Z,135.60
2019-01-26T02:38:14.324Z,143.57
2019-01-26T02:40:44.519Z,124.93
2019-01-26T02:43:14.932Z,129.93
2019-01-26T02:45:45.337Z,136.63
2019-01-26T02:48:15.613Z,119.03
2019-01-26T02:50:45.949Z,139.90
2019-01-26T02:53:16.150Z,128.87
2019-01-26T02:55:46.538Z,129.13
2019-01-26T02:58:16.755Z,137.37
2019-01-26T03:00:47.133Z,134.70
2019-01-26T03:03:17.417Z,133.77
2019-01-26T03:05:47.778Z,128.23
2019-01-26T03:08:18.188Z,140.10
2019-01-26T03:10:48.643Z,137.17
2019-01-26T03:13:18.883Z,138.87
2019-01-26T03:15:49.363Z,141.50
2019-01-26T03:18:19.750Z,141.63
2019-01-26T03:20:50.094Z,138.10
2019-01-26T03:23:20.570Z,141.33
2019-01-26T03:25:50.779Z,149.30
2019-01-26T03:28:21.081Z,141.57
2019-01-26T03:30:51.320Z,137.23
2019-01-26T03:33:21.595Z,143.20
2019-01-26T03:35:52.003Z,142.97
2019-01-26T03:38:22.366Z,143.30
2019-01-26T03:40:52.741Z,150.13
2019-01-26T03:43:23.029Z,149.57
2019-01-26T03:45:53.317Z,144.10
2019-01-26T03:48:23.651Z,134.87
2019-01-26T03:50:53.863Z,143.43
2019-01-26T03:53:24.171Z,145.63
2019-01-26T03:55:54.463Z,146.30
2019-01-26T03:58:24.685Z,145.47
2019-01-26T04:00:54.992Z,145.57
2019-01-26T04:03:25.434Z,147.97
2019-01-26T04:05:55.665Z,158.17
2019-01-26T04:08:26.175Z,154.87
2019-01-26T04:10:56.580Z,145.63
2019-01-26T04:13:27.004Z,156.40
2019-01-26T04:15:57.265Z,143.97
2019-01-26T04:18:27.583Z,141.47
2019-01-26T04:20:57.824Z,151.60
2019-01-26T04:23:28.063Z,147.83
2019-01-26T04:25:58.351Z,136.00
2019-01-26T04:28:28.675Z,149.07
2019-01-26T04:30:59.039Z,148.87
2019-01-26T04:33:29.425Z,143.83
2019-01-26T04:35:59.754Z,151.47
2019-01-26T04:38:30.208Z,133.80
2019-01-26T04:41:00.507Z,140.27
2019-01-26T04:43:30.788Z,135.80
2019-01-26T04:46:01.150Z,144.60
2019-01-26T04:48:31.584Z,141.83
2019-01-26T04:51:02.175Z,151.10
2019-01-26T04:53:33.945Z,142.80
2019-01-26T04:56:04.277Z,141.20
2019-01-26T04:58:34.730Z,135.60
2019-01-26T05:01:05.038Z,139.27
2019-01-26T05:03:35.352Z,144.50
2019-01-26T05:06:05.742Z,132.93
2019-01-26T05:08:36.016Z,136.60
2019-01-26T05:11:06.225Z,136.73
2019-01-26T05:13:36.658Z,124.70
2019-01-26T05:16:07.000Z,133.27
2019-01-26T05:18:37.250Z,134.73
2019-01-26T05:21:08.861Z,137.40
2019-01-26T05:23:39.300Z,137.87
2019-01-26T05:26:10.022Z,138.13
2019-01-26T05:28:40.352Z,127.27
2019-01-26T05:31:10.688Z,141.97
2019-01-26T05:33:41.093Z,139.47
2019-01-26T05:36:11.602Z,127.63
2019-01-26T05:38:42.162Z,128.97
2019-01-26T05:41:12.389Z,146.67
2019-01-26T05:43:42.680Z,130.77
2019-01-26T05:46:12.966Z,131.97
2019-01-26T05:48:43.408Z,137.17
2019-01-26T05:51:13.692Z,138.27
2019-01-26T05:53:44.101Z,131.73
2019-01-26T05:56:14.433Z,137.30
2019-01-26T05:58:44.610Z,132.50
2019-01-26T06:01:14.896Z,134.47
2019-01-26T06:03:46.117Z,137.47
2019-01-26T06:06:16.364Z,143.03
2019-01-26T06:08:46.740Z,136.77
2019-01-26T06:11:16.977Z,134.37
2019-01-26T06:13:47.198Z,140.10
2019-01-26T06:16:17.416Z,143.30
2019-01-26T06:18:47.986Z,134.33
2019-01-26T06:21:18.390Z,132.87
2019-01-26T06:23:48.706Z,126.83
2019-01-26T06:26:19.140Z,126.33
2019-01-26T06:28:49.458Z,128.23
2019-01-26T06:31:19.777Z,129.20
2019-01-26T06:33:50.110Z,137.03
2019-01-26T06:36:20.525Z,130.20
2019-01-26T06:38:50.785Z,140.80
2019-01-26T06:41:21.072Z,130.97
2019-01-26T06:43:51.410Z,129.80
2019-01-26T06:46:21.850Z,125.70
2019-01-26T06:48:55.916Z,123.83
2019-01-26T06:51:26.336Z,125.00
2019-01-26T06:53:56.702Z,125.67
2019-01-26T06:56:26.976Z,121.47
2019-01-26T06:58:57.223Z,127.67
2019-01-26T07:01:27.660Z,123.53
2019-01-26T07:03:58.012Z,124.73
2019-01-26T07:06:37.082Z,126.70
2019-01-26T07:09:08.975Z,115.67
2019-01-26T07:11:39.353Z,119.20
2019-01-26T07:14:09.731Z,120.17
2019-01-26T07:16:39.946Z,124.07
2019-01-26T07:21:52.119Z,121.03
2019-01-26T07:24:22.589Z,123.20
2019-01-26T07:26:52.982Z,124.30
2019-01-26T07:29:23.256Z,110.97
2019-01-26T07:31:53.680Z,126.87
2019-01-26T07:34:23.971Z,128.87
2019-01-26T07:36:54.424Z,126.67
2019-01-26T07:39:24.742Z,121.20
2019-01-26T07:41:55.452Z,120.33
2019-01-26T07:44:26.067Z,126.53
2019-01-26T07:46:56.432Z,114.67
2019-01-26T07:49:26.885Z,111.83
2019-01-26T07:51:57.558Z,116.23
2019-01-26T07:54:28.022Z,117.70
2019-01-26T07:56:58.301Z,121.43
2019-01-26T07:59:28.760Z,120.00
2019-01-26T08:01:59.165Z,120.13
2019-01-26T08:04:29.613Z,127.40
2019-01-26T08:06:59.918Z,115.60
2019-01-26T08:09:30.369Z,121.93
2019-01-26T08:12:00.810Z,113.50
2019-01-26T08:14:31.223Z,120.87
2019-01-26T08:17:01.660Z,117.30
2019-01-26T08:19:31.972Z,117.20
2019-01-26T08:22:02.401Z,116.17
2019-01-26T08:24:33.056Z,113.00
2019-01-26T08:27:03.663Z,113.93
2019-01-26T08:29:34.219Z,110.80
2019-01-26T08:32:04.618Z,111.03
2019-01-26T08:34:35.158Z,115.03
2019-01-26T08:37:08.588Z,112.63
2019-01-26T08:39:39.001Z,113.17
2019-01-26T08:42:09.351Z,118.70
2019-01-26T08:44:39.818Z,115.13
2019-01-26T08:47:10.454Z,115.07
2019-01-26T08:49:40.684Z,121.40
2019-01-26T08:52:11.101Z,120.87
2019-01-26T08:54:41.647Z,119.77
2019-01-26T08:57:12.161Z,113.10
2019-01-26T08:59:42.452Z,111.83
2019-01-26T09:02:25.532Z,118.17
2019-01-26T09:04:57.357Z,111.67
2019-01-26T09:07:28.506Z,120.80
2019-01-26T09:09:59.290Z,108.13
2019-01-26T09:12:29.882Z,119.10
2019-01-26T09:15:00.502Z,110.83
2019-01-26T09:17:30.831Z,121.57
2019-01-26T09:20:01.464Z,111.43
2019-01-26T09:22:31.755Z,109.37
2019-01-26T09:25:02.082Z,113.07
2019-01-26T09:27:32.382Z,109.73
2019-01-26T09:30:03.992Z,114.67
2019-01-26T09:32:34.566Z,107.80
2019-01-26T09:35:05.401Z,111.93
2019-01-26T09:37:35.695Z,97.53
2019-01-26T09:40:06.592Z,101.50
2019-01-26T09:42:37.059Z,98.50
2019-01-26T09:45:10.544Z,102.53
2019-01-26T09:47:41.081Z,102.83
2019-01-26T09:50:11.609Z,100.60
2019-01-26T09:52:42.141Z,101.47
2019-01-26T09:55:12.745Z,103.20
2019-01-26T09:57:43.203Z,98.60
2019-01-26T10:00:16.132Z,101.67
2019-01-26T10:02:46.638Z,105.53
2019-01-26T10:05:17.095Z,109.80
2019-01-26T10:07:47.528Z,106.13
2019-01-26T10:10:17.967Z,99.30
2019-01-26T10:12:48.390Z,114.37
2019-01-26T10:15:18.858Z,106.90
2019-01-26T10:17:49.591Z,104.87
2019-01-26T10:20:23.196Z,106.30
2019-01-26T10:22:53.851Z,109.87
2019-01-26T10:25:25.915Z,104.90
2019-01-26T10:27:56.304Z,106.47
2019-01-26T10:30:32.870Z,105.23
2019-01-26T10:33:03.286Z,103.77
2019-01-26T10:35:52.771Z,105.30
2019-01-26T10:38:23.190Z,109.30
2019-01-26T10:41:12.672Z,101.50
2019-01-26T10:43:46.747Z,105.53
2019-01-26T10:46:17.101Z,107.67
2019-01-26T10:48:47.629Z,104.10
2019-01-26T10:51:18.335Z,99.97
2019-01-26T10:53:48.900Z,97.37
2019-01-26T10:56:20.731Z,95.27
2019-01-26T10:58:51.378Z,100.93
2019-01-26T11:01:21.737Z,104.23
2019-01-26T11:03:52.383Z,99.63
2019-01-26T11:06:22.655Z,94.67
2019-01-26T11:08:53.191Z,97.97
2019-01-26T11:11:23.682Z,91.27
2019-01-26T11:13:54.041Z,91.90
2019-01-26T11:16:24.541Z,107.57
2019-01-26T11:18:55.031Z,101.70
2019-01-26T11:21:25.524Z,99.73
2019-01-26T11:23:56.061Z,89.50
2019-01-26T11:26:26.452Z,90.67
2019-01-26T11:28:56.763Z,95.70
2019-01-26T11:31:27.409Z,98.93
2019-01-26T11:33:57.755Z,98.83
2019-01-26T11:36:29.489Z,96.70
2019-01-26T11:38:59.848Z,94.53
2019-01-26T11:41:30.383Z,99.17
2019-01-26T11:44:00.853Z,95.87
2019-01-26T11:46:36.082Z,100.93
2019-01-26T11:49:06.573Z,97.10
2019-01-26T11:51:56.015Z,95.47
2019-01-26T11:54:26.384Z,98.40
2019-01-26T11:57:15.782Z,100.13
2019-01-26T12:00:05.610Z,97.93
2019-01-26T12:02:44.612Z,98.37
2019-01-26T12:05:34.135Z,98.10
2019-01-26T12:08:04.561Z,93.03
2019-01-26T12:10:35.091Z,98.23
2019-01-26T12:13:05.699Z,105.77
2019-01-26T12:15:36.110Z,99.70
2019-01-26T12:18:06.664Z,104.00
2019-01-26T12:20:37.195Z,102.97
2019-01-26T12:23:07.538Z,105.83
2019-01-26T12:25:39.162Z,109.13
2019-01-26T12:28:09.498Z,103.87
2019-01-26T12:30:40.023Z,106.10
2019-01-26T12:33:10.444Z,106.07
2019-01-26T12:35:40.827Z,112.83
2019-01-26T12:38:12.218Z,108.93
2019-01-26T12:40:42.740Z,109.73
2019-01-26T12:43:13.235Z,106.00
2019-01-26T12:45:43.484Z,107.53
2019-01-26T12:48:13.776Z,111.23
2019-01-26T12:50:44.261Z,122.13
2019-01-26T12:53:14.775Z,103.50
2019-01-26T12:55:45.385Z,105.50
2019-01-26T12:58:15.894Z,111.37
2019-01-26T13:00:46.321Z,112.27
2019-01-26T13:03:16.899Z,113.07
2019-01-26T13:05:48.172Z,108.80
2019-01-26T13:08:18.745Z,123.07
2019-01-26T13:10:52.092Z,115.53
2019-01-26T13:13:22.477Z,112.57
2019-01-26T13:15:52.801Z,118.17
2019-01-26T13:18:24.623Z,116.73
2019-01-26T13:20:54.927Z,109.63
2019-01-26T13:23:25.538Z,111.07
2019-01-26T13:25:56.078Z,107.03
2019-01-26T13:28:26.446Z,109.47
2019-01-26T13:30:56.836Z,111.27
2019-01-26T13:33:27.392Z,112.30
2019-01-26T13:35:58.792Z,110.13
2019-01-26T13:38:29.227Z,110.53
2019-01-26T13:40:59.672Z,110.27
2019-01-26T13:43:30.069Z,112.97
2019-01-26T13:46:00.882Z,107.87
2019-01-26T13:48:31.310Z,108.47
2019-01-26T13:51:02.877Z,109.10
2019-01-26T13:53:33.150Z,101.30
2019-01-26T13:56:03.501Z,110.67
2019-01-26T13:58:33.851Z,109.93
2019-01-26T14:01:04.394Z,107.90
2019-01-26T14:03:35.031Z,108.47
2019-01-26T14:06:05.842Z,110.73
2019-01-26T14:08:36.410Z,106.87
2019-01-26T14:11:20.133Z,113.50
2019-01-26T14:13:51.670Z,108.37
2019-01-26T14:16:22.259Z,114.07
2019-01-26T14:18:52.691Z,123.17
2019-01-26T14:21:23.242Z,115.93
2019-01-26T14:23:55.019Z,115.73
2019-01-26T14:26:25.450Z,120.37
2019-01-26T14:28:56.072Z,116.80
2019-01-26T14:31:27.150Z,115.90
2019-01-26T14:33:57.651Z,112.23
2019-01-26T14:36:28.272Z,115.87
2019-01-26T14:38:58.911Z,121.60
2019-01-26T14:41:29.413Z,122.97
2019-01-26T14:43:59.961Z,114.57
2019-01-26T14:46:30.871Z,124.77
2019-01-26T14:49:01.335Z,118.90
2019-01-26T14:51:31.968Z,119.13
2019-01-26T14:54:02.433Z,123.23
2019-01-26T14:56:33.455Z,123.03
2019-01-26T14:59:05.489Z,129.50
2019-01-26T15:01:36.118Z,134.43
2019-01-26T15:04:06.527Z,132.37
2019-01-26T15:06:40.374Z,131.87
2019-01-26T15:09:11.061Z,132.87
2019-01-26T15:11:43.292Z,136.37
2019-01-26T15:14:14.222Z,135.80
2019-01-26T15:16:44.900Z,140.37
2019-01-26T15:19:15.709Z,129.23
2019-01-26T15:21:46.551Z,124.37
2019-01-26T15:24:17.057Z,127.23
2019-01-26T15:26:47.672Z,137.90
2019-01-26T15:29:18.294Z,142.80
2019-01-26T15:31:48.765Z,142.73
2019-01-26T15:34:19.281Z,137.47
2019-01-26T15:36:49.780Z,142.93
2019-01-26T15:39:20.191Z,143.50
2019-01-26T15:41:50.734Z,140.87
2019-01-26T15:44:21.383Z,143.80
2019-01-26T15:46:51.963Z,137.50
2019-01-26T15:49:22.529Z,136.37
2019-01-26T15:51:52.926Z,141.73
2019-01-26T15:54:23.262Z,142.50
2019-01-26T15:56:53.854Z,145.03
2019-01-26T15:59:24.513Z,147.20
2019-01-26T16:01:55.110Z,138.33
2019-01-26T16:04:25.800Z,141.20
2019-01-26T16:06:58.702Z,151.80
2019-01-26T16:09:29.171Z,136.83
2019-01-26T16:11:59.698Z,142.47
2019-01-26T16:14:30.222Z,151.13
2019-01-26T16:17:01.208Z,154.27
2019-01-26T16:19:31.691Z,142.23
2019-01-26T16:22:02.383Z,156.00
2019-01-26T16:24:32.830Z,148.03
2019-01-26T16:27:03.357Z,151.33
2019-01-26T16:29:33.856Z,153.47
2019-01-26T16:32:04.229Z,156.40
2019-01-26T16:34:34.690Z,152.30
2019-01-26T16:37:05.187Z,144.70
2019-01-26T16:39:35.859Z,163.63
2019-01-26T16:42:06.621Z,158.07
2019-01-26T16:44:37.212Z,149.77
2019-01-26T16:47:07.696Z,150.63
2019-01-26T16:49:38.708Z,152.00
2019-01-26T16:52:13.988Z,150.63
2019-01-26T16:54:41.704Z,149.97
2019-01-26T16:57:12.793Z,149.53
2019-01-26T16:59:43.297Z,161.23
2019-01-26T17:02:14.553Z,153.00
2019-01-26T17:04:44.980Z,160.73
2019-01-26T17:07:15.724Z,155.63
2019-01-26T17:09:46.043Z,160.47
2019-01-26T17:12:16.670Z,161.33
2019-01-26T17:14:47.241Z,159.87
2019-01-26T17:17:18.152Z,150.17
2019-01-26T17:19:48.736Z,160.93
2019-01-26T17:22:19.286Z,158.93
2019-01-26T17:24:50.012Z,167.43
2019-01-26T17:27:20.399Z,154.07
2019-01-26T17:29:50.712Z,160.17
2019-01-26T17:32:21.385Z,155.13
2019-01-26T17:34:51.643Z,155.67
2019-01-26T17:37:22.150Z,158.23
2019-01-26T17:39:52.664Z,167.57
2019-01-26T17:42:23.422Z,176.40
2019-01-26T17:44:54.634Z,175.67
2019-01-26T17:47:25.155Z,167.33
2019-01-26T17:50:01.771Z,176.23
2019-01-26T17:52:32.571Z,174.57
2019-01-26T17:55:03.591Z,174.70
2019-01-26T17:57:34.063Z,184.03
2019-01-26T18:00:05.301Z,172.63
2019-01-26T18:02:35.762Z,197.87
2019-01-26T18:05:08.061Z,189.77
2019-01-26T18:07:38.517Z,179.20
2019-01-26T18:10:13.111Z,191.47
2019-01-26T18:12:43.977Z,176.77
2019-01-26T18:15:15.241Z,192.57
2019-01-26T18:17:46.215Z,190.30
2019-01-26T18:20:20.082Z,185.60
2019-01-26T18:22:50.591Z,191.13
2019-01-26T18:25:22.033Z,189.43
2019-01-26T18:27:52.468Z,192.43
2019-01-26T18:30:24.558Z,182.70
2019-01-26T18:32:55.139Z,189.33
2019-01-26T18:35:25.790Z,178.60
2019-01-26T18:37:56.332Z,191.70
2019-01-26T18:40:26.948Z,211.07
2019-01-26T18:42:57.392Z,190.77
2019-01-26T18:45:28.738Z,221.13
2019-01-26T18:47:59.508Z,207.37
2019-01-26T18:50:32.686Z,198.23
2019-01-26T18:53:03.065Z,207.47
2019-01-26T18:55:33.607Z,214.93
2019-01-26T18:58:04.083Z,220.20
2019-01-26T19:00:37.450Z,224.03
2019-01-26T19:03:36.594Z,223.30
2019-01-26T19:06:08.292Z,222.43
2019-01-26T19:08:38.732Z,221.10
2019-01-26T19:11:09.248Z,231.33
2019-01-26T19:13:40.039Z,224.13
2019-01-26T19:16:10.481Z,222.57
2019-01-26T19:18:43.788Z,216.83
2019-01-26T19:21:14.438Z,223.73
2019-01-26T19:23:45.227Z,231.90
2019-01-26T19:26:15.541Z,231.77
2019-01-26T19:28:46.786Z,223.27
2019-01-26T19:31:17.793Z,226.63
2019-01-26T19:33:48.465Z,235.93
2019-01-26T19:36:19.141Z,214.97
2019-01-26T19:38:51.604Z,224.53
2019-01-26T19:41:25.458Z,228.83
2019-01-26T19:43:55.986Z,214.83
2019-01-26T19:46:26.564Z,233.13
2019-01-26T19:48:57.644Z,219.13
2019-01-26T19:51:29.669Z,214.93
2019-01-26T19:54:00.223Z,231.27
2019-01-26T19:56:30.843Z,217.77
2019-01-26T19:59:01.393Z,222.30
2019-01-26T20:01:32.938Z,220.40
2019-01-26T20:04:05.048Z,213.33
2019-01-26T20:06:38.057Z,209.57
2019-01-26T20:09:11.928Z,206.57
2019-01-26T20:11:52.346Z,206.13
2019-01-26T20:14:41.548Z,198.60
2019-01-26T20:17:12.031Z,198.43
2019-01-26T20:19:42.416Z,200.77
2019-01-26T20:22:13.052Z,199.57
2019-01-26T20:24:43.630Z,198.47
2019-01-26T20:27:14.127Z,198.20
2019-01-26T20:29:44.412Z,204.30
2019-01-26T20:32:14.818Z,198.80
2019-01-26T20:34:45.212Z,193.33
2019-01-26T20:37:15.517Z,181.40
2019-01-26T20:39:45.884Z,190.70
2019-01-26T20:42:16.396Z,191.33
2019-01-26T20:44:46.928Z,189.60
2019-01-26T20:47:17.341Z,190.40
2019-01-26T20:49:47.651Z,186.97
2019-01-26T20:52:18.122Z,189.83
2019-01-26T20:54:48.314Z,190.67
2019-01-26T20:57:18.768Z,194.50
2019-01-26T20:59:49.139Z,193.43
2019-01-26T21:02:19.534Z,202.20
2019-01-26T21:04:50.564Z,191.93
2019-01-26T21:07:23.349Z,196.90
2019-01-26T21:09:53.922Z,200.30
2019-01-26T21:12:24.502Z,192.03
2019-01-26T21:14:54.921Z,198.03
2019-01-26T21:17:25.973Z,186.27
2019-01-26T21:19:56.492Z,189.57
2019-01-26T21:22:26.959Z,198.50
2019-01-26T21:24:57.353Z,189.70
2019-01-26T21:27:27.669Z,186.17
2019-01-26T21:29:57.960Z,179.70
2019-01-26T21:32:28.433Z,193.13
2019-01-26T21:34:58.951Z,200.97
2019-01-26T21:37:29.333Z,199.37
2019-01-26T21:39:59.710Z,199.40
2019-01-26T21:42:30.050Z,191.87
2019-01-26T21:45:00.355Z,183.87
2019-01-26T21:47:30.724Z,187.60
2019-01-26T21:50:01.171Z,196.57
2019-01-26T21:52:40.967Z,198.93
2019-01-26T21:55:08.298Z,194.33
2019-01-26T21:57:46.035Z,190.43
2019-01-26T22:00:21.198Z,197.90
2019-01-26T22:02:51.659Z,190.33
2019-01-26T22:05:21.915Z,191.07
2019-01-26T22:07:52.416Z,198.27
2019-01-26T22:10:23.250Z,192.20
2019-01-26T22:12:53.623Z,204.17
2019-01-26T22:15:24.252Z,205.33
2019-01-26T22:17:54.549Z,208.40
2019-01-26T22:20:26.813Z,204.77
2019-01-26T22:22:58.642Z,193.27
2019-01-26T22:25:29.023Z,198.70
2019-01-26T22:27:59.479Z,202.50
2019-01-26T22:30:31.784Z,204.67
2019-01-26T22:33:02.056Z,195.97
2019-01-26T22:35:32.420Z,185.87
2019-01-26T22:38:02.694Z,200.57
2019-01-26T22:40:35.105Z,202.43
2019-01-26T22:43:05.854Z,209.47
2019-01-26T22:45:36.599Z,201.47
2019-01-26T22:48:07.428Z,199.37
2019-01-26T22:50:37.861Z,203.10
2019-01-26T22:53:08.329Z,197.90
2019-01-26T22:55:38.791Z,218.20
2019-01-26T22:58:09.339Z,201.67
2019-01-26T23:00:55.816Z,199.90
2019-01-26T23:03:44.502Z,197.70
2019-01-26T23:06:33.314Z,201.07
2019-01-26T23:09:15.343Z,198.57
2019-01-26T23:12:11.950Z,196.27
2019-01-26T23:15:10.578Z,202.83
2019-01-26T23:18:03.940Z,195.80
2019-01-26T23:21:01.197Z,202.37
2019-01-26T23:24:10.037Z,201.13
2019-01-26T23:27:06.921Z,193.30
2019-01-26T23:30:00.759Z,202.53
2019-01-26T23:32:31.300Z,210.37
2019-01-26T23:35:01.707Z,201.07
2019-01-26T23:37:32.132Z,210.20
2019-01-26T23:40:02.341Z,201.13
2019-01-26T23:42:32.776Z,210.20
2019-01-26T23:45:04.030Z,213.83
2019-01-26T23:47:34.435Z,195.27
2019-01-26T23:50:05.088Z,212.30
2019-01-26T23:52:35.507Z,211.93
2019-01-26T23:55:06.144Z,218.07
2019-01-26T23:57:36.464Z,215.47
